sensor_id;sensor_type;location;lat;lon;timestamp;pressure;altitude;pressure_sealevel;temperature;humidity
42887;BME280;29032;56.028;92.904;2024-01-11T00:02:29;97682.53;;;-12.43;41.58
42887;BME280;29032;56.028;92.904;2024-01-11T00:07:33;97697.88;;;-12.21;41.53
42887;BME280;29032;56.028;92.904;2024-01-11T00:12:35;97689.59;;;-11.96;40.60
42887;BME280;29032;56.028;92.904;2024-01-11T00:17:37;97726.50;;;-11.65;40.66
42887;BME280;29032;56.028;92.904;2024-01-11T00:22:41;97759.84;;;-11.41;40.38
42887;BME280;29032;56.028;92.904;2024-01-11T00:27:43;97766.44;;;-11.42;39.63
42887;BME280;29032;56.028;92.904;2024-01-11T00:32:45;97768.25;;;-11.48;40.59
42887;BME280;29032;56.028;92.904;2024-01-11T00:37:49;97788.63;;;-11.38;40.48
42887;BME280;29032;56.028;92.904;2024-01-11T00:42:51;97856.41;;;-11.36;40.78
42887;BME280;29032;56.028;92.904;2024-01-11T00:47:53;97867.84;;;-11.22;39.98
42887;BME280;29032;56.028;92.904;2024-01-11T00:52:57;97832.13;;;-11.36;41.89
42887;BME280;29032;56.028;92.904;2024-01-11T00:57:59;97790.16;;;-11.28;41.93
42887;BME280;29032;56.028;92.904;2024-01-11T01:03:01;97802.78;;;-11.15;41.75
42887;BME280;29032;56.028;92.904;2024-01-11T01:08:05;97816.00;;;-11.08;41.98
42887;BME280;29032;56.028;92.904;2024-01-11T01:13:07;97849.28;;;-11.11;41.69
42887;BME280;29032;56.028;92.904;2024-01-11T01:18:09;97857.22;;;-11.17;42.00
42887;BME280;29032;56.028;92.904;2024-01-11T01:23:13;97859.81;;;-11.04;42.02
42887;BME280;29032;56.028;92.904;2024-01-11T01:28:15;97877.22;;;-10.96;41.96
42887;BME280;29032;56.028;92.904;2024-01-11T01:33:17;97859.84;;;-10.86;42.11
42887;BME280;29032;56.028;92.904;2024-01-11T01:38:21;97853.13;;;-10.72;42.37
42887;BME280;29032;56.028;92.904;2024-01-11T01:43:23;97838.53;;;-10.93;43.30
42887;BME280;29032;56.028;92.904;2024-01-11T01:48:25;97882.34;;;-10.89;42.61
42887;BME280;29032;56.028;92.904;2024-01-11T01:53:30;97878.44;;;-10.88;42.83
42887;BME280;29032;56.028;92.904;2024-01-11T01:58:33;97885.06;;;-10.89;43.67
42887;BME280;29032;56.028;92.904;2024-01-11T02:03:35;97899.47;;;-10.83;45.93
42887;BME280;29032;56.028;92.904;2024-01-11T02:08:40;97906.25;;;-10.60;43.82
42887;BME280;29032;56.028;92.904;2024-01-11T02:13:44;97928.66;;;-10.41;44.80
42887;BME280;29032;56.028;92.904;2024-01-11T02:18:46;97950.44;;;-10.17;43.10
42887;BME280;29032;56.028;92.904;2024-01-11T02:24:01;97973.47;;;-9.94;44.53
42887;BME280;29032;56.028;92.904;2024-01-11T02:29:03;97980.38;;;-9.93;43.46
42887;BME280;29032;56.028;92.904;2024-01-11T02:34:05;98006.22;;;-10.01;44.40
42887;BME280;29032;56.028;92.904;2024-01-11T02:39:12;98025.91;;;-9.92;46.70
42887;BME280;29032;56.028;92.904;2024-01-11T02:44:15;98028.78;;;-9.86;51.40
42887;BME280;29032;56.028;92.904;2024-01-11T02:49:17;98039.72;;;-9.62;51.50
42887;BME280;29032;56.028;92.904;2024-01-11T02:54:21;98052.97;;;-9.37;53.89
42887;BME280;29032;56.028;92.904;2024-01-11T02:59:23;98082.72;;;-9.09;55.63
42887;BME280;29032;56.028;92.904;2024-01-11T03:04:25;98093.28;;;-8.69;54.72
42887;BME280;29032;56.028;92.904;2024-01-11T03:09:29;98109.16;;;-8.34;54.43
42887;BME280;29032;56.028;92.904;2024-01-11T03:14:31;98125.47;;;-8.10;54.23
42887;BME280;29032;56.028;92.904;2024-01-11T03:19:33;98134.84;;;-7.87;53.33
42887;BME280;29032;56.028;92.904;2024-01-11T03:24:39;98143.34;;;-7.71;52.84
42887;BME280;29032;56.028;92.904;2024-01-11T03:29:41;98180.03;;;-7.51;51.90
42887;BME280;29032;56.028;92.904;2024-01-11T03:34:43;98177.56;;;-7.40;51.60
42887;BME280;29032;56.028;92.904;2024-01-11T03:39:47;98202.06;;;-7.25;51.39
42887;BME280;29032;56.028;92.904;2024-01-11T03:44:49;98214.66;;;-7.13;50.35
42887;BME280;29032;56.028;92.904;2024-01-11T03:49:51;98240.56;;;-7.03;48.82
42887;BME280;29032;56.028;92.904;2024-01-11T03:54:55;98240.22;;;-6.96;47.29
42887;BME280;29032;56.028;92.904;2024-01-11T04:00:00;98260.97;;;-6.84;46.21
42887;BME280;29032;56.028;92.904;2024-01-11T04:05:02;98270.00;;;-6.77;44.52
42887;BME280;29032;56.028;92.904;2024-01-11T04:10:07;98304.81;;;-6.67;43.63
42887;BME280;29032;56.028;92.904;2024-01-11T04:15:12;98312.88;;;-6.58;42.53
42887;BME280;29032;56.028;92.904;2024-01-11T04:20:14;98318.16;;;-6.54;42.23
42887;BME280;29032;56.028;92.904;2024-01-11T04:25:18;98341.16;;;-6.55;41.70
42887;BME280;29032;56.028;92.904;2024-01-11T04:30:20;98362.38;;;-6.44;44.58
42887;BME280;29032;56.028;92.904;2024-01-11T04:35:22;98363.78;;;-6.49;40.74
42887;BME280;29032;56.028;92.904;2024-01-11T04:40:26;98389.66;;;-6.53;40.27
42887;BME280;29032;56.028;92.904;2024-01-11T04:45:28;98402.56;;;-6.63;38.64
42887;BME280;29032;56.028;92.904;2024-01-11T04:50:30;98433.69;;;-6.64;37.46
42887;BME280;29032;56.028;92.904;2024-01-11T04:55:34;98440.75;;;-6.58;37.73
42887;BME280;29032;56.028;92.904;2024-01-11T05:00:36;98452.91;;;-6.44;36.51
42887;BME280;29032;56.028;92.904;2024-01-11T05:05:38;98473.19;;;-6.45;35.13
42887;BME280;29032;56.028;92.904;2024-01-11T05:10:42;98474.81;;;-6.38;35.80
42887;BME280;29032;56.028;92.904;2024-01-11T05:15:44;98490.31;;;-6.30;35.64
42887;BME280;29032;56.028;92.904;2024-01-11T05:20:46;98497.50;;;-6.17;35.85
42887;BME280;29032;56.028;92.904;2024-01-11T05:25:50;98512.25;;;-6.00;36.01
42887;BME280;29032;56.028;92.904;2024-01-11T05:30:52;98527.22;;;-5.81;35.97
42887;BME280;29032;56.028;92.904;2024-01-11T05:35:54;98544.19;;;-5.62;36.07
42887;BME280;29032;56.028;92.904;2024-01-11T05:40:58;98557.06;;;-5.62;35.16
42887;BME280;29032;56.028;92.904;2024-01-11T05:46:00;98569.63;;;-5.89;34.52
42887;BME280;29032;56.028;92.904;2024-01-11T05:51:02;98562.75;;;-5.99;35.09
42887;BME280;29032;56.028;92.904;2024-01-11T05:56:09;98565.75;;;-5.97;34.95
42887;BME280;29032;56.028;92.904;2024-01-11T06:01:11;98590.22;;;-5.88;35.37
42887;BME280;29032;56.028;92.904;2024-01-11T06:06:13;98591.53;;;-5.59;35.01
42887;BME280;29032;56.028;92.904;2024-01-11T06:11:17;98593.31;;;-5.32;35.07
42887;BME280;29032;56.028;92.904;2024-01-11T06:16:19;98592.47;;;-5.24;34.57
42887;BME280;29032;56.028;92.904;2024-01-11T06:21:21;98594.56;;;-5.19;34.86
42887;BME280;29032;56.028;92.904;2024-01-11T06:26:25;98593.03;;;-5.34;32.29
42887;BME280;29032;56.028;92.904;2024-01-11T06:31:27;98611.97;;;-5.79;31.57
42887;BME280;29032;56.028;92.904;2024-01-11T06:36:29;98598.44;;;-5.97;31.41
42887;BME280;29032;56.028;92.904;2024-01-11T06:41:33;98611.50;;;-6.10;31.59
42887;BME280;29032;56.028;92.904;2024-01-11T06:46:35;98608.09;;;-6.29;30.89
42887;BME280;29032;56.028;92.904;2024-01-11T06:51:37;98609.78;;;-6.32;30.24
42887;BME280;29032;56.028;92.904;2024-01-11T06:56:41;98608.63;;;-6.40;30.52
42887;BME280;29032;56.028;92.904;2024-01-11T07:01:43;98626.00;;;-6.37;30.90
42887;BME280;29032;56.028;92.904;2024-01-11T07:06:45;98629.13;;;-6.30;31.12
42887;BME280;29032;56.028;92.904;2024-01-11T07:11:49;98633.41;;;-6.38;30.57
42887;BME280;29032;56.028;92.904;2024-01-11T07:16:51;98643.66;;;-6.33;30.57
42887;BME280;29032;56.028;92.904;2024-01-11T07:21:53;98650.56;;;-6.13;31.42
42887;BME280;29032;56.028;92.904;2024-01-11T07:26:56;98653.06;;;-6.01;31.42
42887;BME280;29032;56.028;92.904;2024-01-11T07:31:59;98658.22;;;-6.03;30.57
42887;BME280;29032;56.028;92.904;2024-01-11T07:37:01;98657.75;;;-6.01;30.97
42887;BME280;29032;56.028;92.904;2024-01-11T07:42:05;98683.47;;;-6.02;31.33
42887;BME280;29032;56.028;92.904;2024-01-11T07:47:07;98668.72;;;-6.19;31.24
42887;BME280;29032;56.028;92.904;2024-01-11T07:52:09;98671.53;;;-6.47;30.41
42887;BME280;29032;56.028;92.904;2024-01-11T07:57:12;98661.88;;;-6.57;30.41
42887;BME280;29032;56.028;92.904;2024-01-11T08:02:14;98669.47;;;-6.70;30.48
42887;BME280;29032;56.028;92.904;2024-01-11T08:07:17;98675.06;;;-6.83;30.82
42887;BME280;29032;56.028;92.904;2024-01-11T08:12:21;98689.56;;;-6.68;31.23
42887;BME280;29032;56.028;92.904;2024-01-11T08:17:23;98689.41;;;-6.73;31.16
42887;BME280;29032;56.028;92.904;2024-01-11T08:22:25;98696.97;;;-6.68;31.30
42887;BME280;29032;56.028;92.904;2024-01-11T08:27:28;98694.81;;;-6.64;31.17
42887;BME280;29032;56.028;92.904;2024-01-11T08:32:30;98704.97;;;-6.65;31.68
42887;BME280;29032;56.028;92.904;2024-01-11T08:37:32;98719.03;;;-6.66;31.92
42887;BME280;29032;56.028;92.904;2024-01-11T08:42:36;98719.03;;;-6.75;31.52
42887;BME280;29032;56.028;92.904;2024-01-11T08:47:38;98726.88;;;-6.87;31.25
42887;BME280;29032;56.028;92.904;2024-01-11T08:52:41;98717.81;;;-7.11;31.88
42887;BME280;29032;56.028;92.904;2024-01-11T08:57:45;98717.34;;;-7.19;32.01
42887;BME280;29032;56.028;92.904;2024-01-11T09:02:47;98716.59;;;-7.19;32.23
42887;BME280;29032;56.028;92.904;2024-01-11T09:07:50;98738.03;;;-7.21;31.75
42887;BME280;29032;56.028;92.904;2024-01-11T09:12:53;98742.56;;;-7.09;32.02
42887;BME280;29032;56.028;92.904;2024-01-11T09:17:55;98758.25;;;-7.13;32.52
42887;BME280;29032;56.028;92.904;2024-01-11T09:22:58;98772.13;;;-7.29;32.41
42887;BME280;29032;56.028;92.904;2024-01-11T09:28:01;98779.34;;;-7.35;32.64
42887;BME280;29032;56.028;92.904;2024-01-11T09:33:04;98785.81;;;-7.51;32.44
42887;BME280;29032;56.028;92.904;2024-01-11T09:38:06;98792.56;;;-7.56;32.15
42887;BME280;29032;56.028;92.904;2024-01-11T09:43:10;98785.91;;;-7.64;32.14
42887;BME280;29032;56.028;92.904;2024-01-11T09:48:12;98788.00;;;-7.68;31.78
42887;BME280;29032;56.028;92.904;2024-01-11T09:53:16;98800.09;;;-7.69;32.42
42887;BME280;29032;56.028;92.904;2024-01-11T09:58:21;98796.28;;;-7.72;32.17
42887;BME280;29032;56.028;92.904;2024-01-11T10:03:24;98795.97;;;-7.74;32.10
42887;BME280;29032;56.028;92.904;2024-01-11T10:08:26;98804.84;;;-7.82;31.92
42887;BME280;29032;56.028;92.904;2024-01-11T10:13:31;98809.69;;;-7.77;31.92
42887;BME280;29032;56.028;92.904;2024-01-11T10:18:34;98814.81;;;-7.79;31.87
42887;BME280;29032;56.028;92.904;2024-01-11T10:23:36;98815.88;;;-7.77;31.88
42887;BME280;29032;56.028;92.904;2024-01-11T10:28:42;98813.59;;;-7.78;31.87
42887;BME280;29032;56.028;92.904;2024-01-11T10:33:45;98801.44;;;-7.96;31.57
42887;BME280;29032;56.028;92.904;2024-01-11T10:38:47;98792.94;;;-8.07;31.73
42887;BME280;29032;56.028;92.904;2024-01-11T10:43:51;98804.16;;;-7.96;31.63
42887;BME280;29032;56.028;92.904;2024-01-11T10:48:56;98808.09;;;-7.97;31.75
42887;BME280;29032;56.028;92.904;2024-01-11T10:54:01;98805.94;;;-8.02;31.66
42887;BME280;29032;56.028;92.904;2024-01-11T10:59:05;98799.94;;;-7.97;31.80
42887;BME280;29032;56.028;92.904;2024-01-11T11:04:07;98807.00;;;-7.99;31.56
42887;BME280;29032;56.028;92.904;2024-01-11T11:09:11;98814.38;;;-8.00;31.23
42887;BME280;29032;56.028;92.904;2024-01-11T11:14:17;98802.66;;;-7.97;31.50
42887;BME280;29032;56.028;92.904;2024-01-11T11:19:20;98798.75;;;-7.96;31.73
42887;BME280;29032;56.028;92.904;2024-01-11T11:24:22;98789.84;;;-7.96;31.29
42887;BME280;29032;56.028;92.904;2024-01-11T11:29:26;98784.25;;;-7.93;31.43
42887;BME280;29032;56.028;92.904;2024-01-11T11:34:40;98771.94;;;-7.84;31.60
42887;BME280;29032;56.028;92.904;2024-01-11T11:39:43;98760.41;;;-7.98;31.55
42887;BME280;29032;56.028;92.904;2024-01-11T11:44:50;98761.97;;;-7.87;31.46
42887;BME280;29032;56.028;92.904;2024-01-11T11:50:04;98753.25;;;-7.82;31.86
42887;BME280;29032;56.028;92.904;2024-01-11T11:55:07;98740.81;;;-7.93;31.37
42887;BME280;29032;56.028;92.904;2024-01-11T12:00:13;98743.16;;;-7.82;30.90
42887;BME280;29032;56.028;92.904;2024-01-11T12:05:17;98742.72;;;-7.71;31.48
42887;BME280;29032;56.028;92.904;2024-01-11T12:10:19;98744.59;;;-7.59;31.00
42887;BME280;29032;56.028;92.904;2024-01-11T12:15:23;98739.34;;;-7.44;30.65
42887;BME280;29032;56.028;92.904;2024-01-11T12:20:29;98736.50;;;-7.31;30.97
42887;BME280;29032;56.028;92.904;2024-01-11T12:25:31;98736.69;;;-7.17;32.91
42887;BME280;29032;56.028;92.904;2024-01-11T12:30:35;98735.78;;;-6.95;30.75
42887;BME280;29032;56.028;92.904;2024-01-11T12:35:37;98727.47;;;-6.73;31.38
42887;BME280;29032;56.028;92.904;2024-01-11T12:40:40;98714.03;;;-6.59;31.78
42887;BME280;29032;56.028;92.904;2024-01-11T12:45:44;98722.78;;;-6.45;31.50
42887;BME280;29032;56.028;92.904;2024-01-11T12:50:46;98715.81;;;-6.46;31.17
42887;BME280;29032;56.028;92.904;2024-01-11T12:55:49;98708.13;;;-6.48;31.96
42887;BME280;29032;56.028;92.904;2024-01-11T13:01:05;98705.56;;;-6.42;31.13
42887;BME280;29032;56.028;92.904;2024-01-11T13:06:07;98705.97;;;-6.35;31.26
42887;BME280;29032;56.028;92.904;2024-01-11T13:11:09;98695.22;;;-6.29;31.76
42887;BME280;29032;56.028;92.904;2024-01-11T13:16:13;98687.09;;;-6.47;31.09
42887;BME280;29032;56.028;92.904;2024-01-11T13:21:15;98682.47;;;-6.84;31.77
42887;BME280;29032;56.028;92.904;2024-01-11T13:26:17;98675.38;;;-6.90;32.52
42887;BME280;29032;56.028;92.904;2024-01-11T13:31:20;98678.53;;;-6.73;30.64
42887;BME280;29032;56.028;92.904;2024-01-11T13:36:22;98671.88;;;-6.63;30.73
42887;BME280;29032;56.028;92.904;2024-01-11T13:41:25;98657.31;;;-6.51;29.87
42887;BME280;29032;56.028;92.904;2024-01-11T13:46:28;98657.00;;;-6.44;30.61
42887;BME280;29032;56.028;92.904;2024-01-11T13:51:30;98637.81;;;-6.40;29.52
42887;BME280;29032;56.028;92.904;2024-01-11T13:56:32;98635.84;;;-6.40;31.72
42887;BME280;29032;56.028;92.904;2024-01-11T14:01:36;98631.09;;;-6.30;31.61
42887;BME280;29032;56.028;92.904;2024-01-11T14:06:38;98620.72;;;-6.41;30.80
42887;BME280;29032;56.028;92.904;2024-01-11T14:11:40;98609.84;;;-6.50;31.55
42887;BME280;29032;56.028;92.904;2024-01-11T14:16:44;98605.00;;;-6.46;31.11
42887;BME280;29032;56.028;92.904;2024-01-11T14:21:46;98590.81;;;-6.50;32.00
42887;BME280;29032;56.028;92.904;2024-01-11T14:26:48;98556.41;;;-6.62;31.77
42887;BME280;29032;56.028;92.904;2024-01-11T14:31:52;98559.69;;;-6.49;31.54
42887;BME280;29032;56.028;92.904;2024-01-11T14:36:54;98550.63;;;-6.55;33.08
42887;BME280;29032;56.028;92.904;2024-01-11T14:41:56;98538.25;;;-6.56;32.01
42887;BME280;29032;56.028;92.904;2024-01-11T14:47:00;98535.94;;;-6.48;33.10
42887;BME280;29032;56.028;92.904;2024-01-11T14:52:02;98526.72;;;-6.51;32.20
42887;BME280;29032;56.028;92.904;2024-01-11T14:57:05;98507.09;;;-6.55;35.03
42887;BME280;29032;56.028;92.904;2024-01-11T15:02:08;98501.13;;;-6.44;34.45
42887;BME280;29032;56.028;92.904;2024-01-11T15:07:10;98495.53;;;-6.41;33.81
42887;BME280;29032;56.028;92.904;2024-01-11T15:12:13;98490.25;;;-6.44;33.10
42887;BME280;29032;56.028;92.904;2024-01-11T15:17:16;98504.94;;;-6.42;33.77
42887;BME280;29032;56.028;92.904;2024-01-11T15:22:19;98492.34;;;-6.39;34.02
42887;BME280;29032;56.028;92.904;2024-01-11T15:27:21;98491.06;;;-6.29;33.77
42887;BME280;29032;56.028;92.904;2024-01-11T15:32:25;98471.97;;;-6.20;32.82
42887;BME280;29032;56.028;92.904;2024-01-11T15:37:27;98459.94;;;-6.28;33.41
42887;BME280;29032;56.028;92.904;2024-01-11T15:42:29;98460.38;;;-6.53;33.57
42887;BME280;29032;56.028;92.904;2024-01-11T15:47:34;98457.78;;;-6.48;34.78
42887;BME280;29032;56.028;92.904;2024-01-11T15:52:37;98456.28;;;-6.49;35.23
42887;BME280;29032;56.028;92.904;2024-01-11T15:57:39;98444.47;;;-6.46;33.97
42887;BME280;29032;56.028;92.904;2024-01-11T16:02:43;98439.19;;;-6.49;34.70
42887;BME280;29032;56.028;92.904;2024-01-11T16:07:45;98432.56;;;-6.48;34.89
42887;BME280;29032;56.028;92.904;2024-01-11T16:12:47;98427.75;;;-6.53;34.53
42887;BME280;29032;56.028;92.904;2024-01-11T16:17:51;98420.38;;;-6.62;36.67
42887;BME280;29032;56.028;92.904;2024-01-11T16:22:53;98427.75;;;-6.53;34.64
42887;BME280;29032;56.028;92.904;2024-01-11T16:27:55;98414.81;;;-6.68;36.47
42887;BME280;29032;56.028;92.904;2024-01-11T16:32:59;98419.44;;;-6.59;35.03
42887;BME280;29032;56.028;92.904;2024-01-11T16:38:02;98410.72;;;-6.63;35.97
42887;BME280;29032;56.028;92.904;2024-01-11T16:43:04;98413.84;;;-6.56;35.54
42887;BME280;29032;56.028;92.904;2024-01-11T16:48:08;98420.03;;;-6.55;35.31
42887;BME280;29032;56.028;92.904;2024-01-11T16:53:10;98429.25;;;-6.52;36.92
42887;BME280;29032;56.028;92.904;2024-01-11T16:58:12;98436.19;;;-6.51;33.89
42887;BME280;29032;56.028;92.904;2024-01-11T17:03:16;98434.22;;;-6.51;34.03
42887;BME280;29032;56.028;92.904;2024-01-11T17:08:20;98429.56;;;-6.36;35.12
42887;BME280;29032;56.028;92.904;2024-01-11T17:13:22;98426.38;;;-6.10;34.18
42887;BME280;29032;56.028;92.904;2024-01-11T17:18:26;98414.75;;;-5.96;33.45
42887;BME280;29032;56.028;92.904;2024-01-11T17:23:28;98409.91;;;-5.92;33.87
42887;BME280;29032;56.028;92.904;2024-01-11T17:28:30;98419.47;;;-5.82;33.94
42887;BME280;29032;56.028;92.904;2024-01-11T17:33:34;98426.63;;;-5.69;33.36
42887;BME280;29032;56.028;92.904;2024-01-11T17:38:36;98435.28;;;-5.71;33.55
42887;BME280;29032;56.028;92.904;2024-01-11T17:43:38;98438.47;;;-5.73;33.59
42887;BME280;29032;56.028;92.904;2024-01-11T17:48:42;98448.16;;;-5.71;34.32
42887;BME280;29032;56.028;92.904;2024-01-11T17:53:44;98440.63;;;-5.77;34.13
42887;BME280;29032;56.028;92.904;2024-01-11T17:58:46;98445.22;;;-5.83;34.33
42887;BME280;29032;56.028;92.904;2024-01-11T18:03:51;98441.84;;;-5.78;34.67
42887;BME280;29032;56.028;92.904;2024-01-11T18:08:53;98429.84;;;-5.71;34.85
42887;BME280;29032;56.028;92.904;2024-01-11T18:13:57;98429.47;;;-5.79;34.77
42887;BME280;29032;56.028;92.904;2024-01-11T18:19:00;98430.22;;;-5.78;35.72
42887;BME280;29032;56.028;92.904;2024-01-11T18:24:03;98426.06;;;-5.74;35.47
42887;BME280;29032;56.028;92.904;2024-01-11T18:29:05;98431.81;;;-5.71;35.53
42887;BME280;29032;56.028;92.904;2024-01-11T18:34:09;98425.69;;;-5.66;35.38
42887;BME280;29032;56.028;92.904;2024-01-11T18:39:11;98409.81;;;-5.68;36.26
42887;BME280;29032;56.028;92.904;2024-01-11T18:44:13;98391.41;;;-5.73;36.01
42887;BME280;29032;56.028;92.904;2024-01-11T18:49:17;98400.53;;;-5.76;36.80
42887;BME280;29032;56.028;92.904;2024-01-11T18:54:19;98390.91;;;-5.86;36.52
42887;BME280;29032;56.028;92.904;2024-01-11T19:26:54;98396.78;;;-7.22;38.00
42887;BME280;29032;56.028;92.904;2024-01-11T19:31:57;98411.75;;;-6.85;36.30
42887;BME280;29032;56.028;92.904;2024-01-11T19:36:59;98425.66;;;-6.92;36.18
42887;BME280;29032;56.028;92.904;2024-01-11T19:42:03;98429.69;;;-7.11;36.46
42887;BME280;29032;56.028;92.904;2024-01-11T19:47:05;98423.69;;;-7.24;36.83
42887;BME280;29032;56.028;92.904;2024-01-11T19:52:07;98443.50;;;-7.42;37.68
42887;BME280;29032;56.028;92.904;2024-01-11T19:57:11;98438.53;;;-7.44;38.54
42887;BME280;29032;56.028;92.904;2024-01-11T20:02:13;98439.56;;;-7.41;39.06
42887;BME280;29032;56.028;92.904;2024-01-11T20:07:16;98463.28;;;-7.51;39.81
42887;BME280;29032;56.028;92.904;2024-01-11T20:12:19;98481.22;;;-7.35;39.89
42887;BME280;29032;56.028;92.904;2024-01-11T20:17:21;98493.09;;;-7.14;39.83
42887;BME280;29032;56.028;92.904;2024-01-11T20:22:24;98498.75;;;-7.45;40.80
42887;BME280;29032;56.028;92.904;2024-01-11T20:27:27;98504.66;;;-7.74;41.34
42887;BME280;29032;56.028;92.904;2024-01-11T20:32:29;98504.50;;;-7.89;41.97
42887;BME280;29032;56.028;92.904;2024-01-11T20:37:31;98507.66;;;-7.90;42.42
42887;BME280;29032;56.028;92.904;2024-01-11T20:42:35;98530.88;;;-8.08;42.66
42887;BME280;29032;56.028;92.904;2024-01-11T20:47:37;98532.22;;;-8.12;43.44
42887;BME280;29032;56.028;92.904;2024-01-11T20:52:39;98548.03;;;-8.20;44.19
42887;BME280;29032;56.028;92.904;2024-01-11T20:57:43;98566.16;;;-8.17;44.43
42887;BME280;29032;56.028;92.904;2024-01-11T21:02:45;98571.09;;;-8.25;44.82
42887;BME280;29032;56.028;92.904;2024-01-11T21:07:47;98576.53;;;-8.25;44.92
42887;BME280;29032;56.028;92.904;2024-01-11T21:12:50;98585.16;;;-7.99;44.17
42887;BME280;29032;56.028;92.904;2024-01-11T21:17:53;98588.97;;;-7.87;43.67
42887;BME280;29032;56.028;92.904;2024-01-11T21:22:55;98606.47;;;-7.79;43.98
42887;BME280;29032;56.028;92.904;2024-01-11T21:27:59;98641.38;;;-7.68;43.73
42887;BME280;29032;56.028;92.904;2024-01-11T21:33:01;98658.00;;;-7.48;43.63
42887;BME280;29032;56.028;92.904;2024-01-11T21:38:03;98664.81;;;-7.25;42.60
42887;BME280;29032;56.028;92.904;2024-01-11T21:43:07;98659.22;;;-7.30;42.70
42887;BME280;29032;56.028;92.904;2024-01-11T21:48:09;98662.84;;;-7.33;43.12
42887;BME280;29032;56.028;92.904;2024-01-11T21:53:12;98662.50;;;-7.35;43.06
42887;BME280;29032;56.028;92.904;2024-01-11T21:58:16;98661.63;;;-7.23;42.35
42887;BME280;29032;56.028;92.904;2024-01-11T22:03:18;98686.84;;;-7.14;41.69
42887;BME280;29032;56.028;92.904;2024-01-11T22:08:20;98698.47;;;-6.95;41.65
42887;BME280;29032;56.028;92.904;2024-01-11T22:13:24;98693.66;;;-6.91;41.28
42887;BME280;29032;56.028;92.904;2024-01-11T22:18:26;98722.50;;;-6.93;41.19
42887;BME280;29032;56.028;92.904;2024-01-11T22:23:29;98737.47;;;-6.98;41.66
42887;BME280;29032;56.028;92.904;2024-01-11T22:28:32;98760.69;;;-7.06;41.74
42887;BME280;29032;56.028;92.904;2024-01-11T22:33:34;98793.47;;;-7.00;41.54
42887;BME280;29032;56.028;92.904;2024-01-11T22:38:37;98790.81;;;-6.82;41.53
42887;BME280;29032;56.028;92.904;2024-01-11T22:43:41;98813.03;;;-6.74;40.88
42887;BME280;29032;56.028;92.904;2024-01-11T22:48:43;98822.66;;;-6.92;42.02
42887;BME280;29032;56.028;92.904;2024-01-11T22:53:45;98837.75;;;-7.00;41.20
42887;BME280;29032;56.028;92.904;2024-01-11T22:58:49;98841.94;;;-7.08;41.19
42887;BME280;29032;56.028;92.904;2024-01-11T23:03:51;98847.78;;;-7.28;41.24
42887;BME280;29032;56.028;92.904;2024-01-11T23:08:53;98853.81;;;-7.33;41.75
42887;BME280;29032;56.028;92.904;2024-01-11T23:13:57;98876.69;;;-7.12;41.10
42887;BME280;29032;56.028;92.904;2024-01-11T23:18:59;98874.19;;;-7.28;41.36
42887;BME280;29032;56.028;92.904;2024-01-11T23:24:01;98896.28;;;-7.26;41.33
42887;BME280;29032;56.028;92.904;2024-01-11T23:29:06;98906.13;;;-7.20;41.14
42887;BME280;29032;56.028;92.904;2024-01-11T23:34:08;98916.16;;;-7.29;41.74
42887;BME280;29032;56.028;92.904;2024-01-11T23:39:10;98953.59;;;-7.33;41.69
42887;BME280;29032;56.028;92.904;2024-01-11T23:44:14;98961.75;;;-7.33;41.48
42887;BME280;29032;56.028;92.904;2024-01-11T23:49:16;98962.63;;;-7.36;42.14
42887;BME280;29032;56.028;92.904;2024-01-11T23:54:18;98986.03;;;-7.39;41.30
42887;BME280;29032;56.028;92.904;2024-01-11T23:59:22;99010.97;;;-7.31;40.27
